createdAt,value
2016-11-29T00:00:31.021Z,93.7
2016-11-29T00:01:31.087Z,93.8
2016-11-29T00:02:30.941Z,93.99
2016-11-29T00:03:31.117Z,93.89
2016-11-29T00:04:31.017Z,93.89
2016-11-29T00:05:31.085Z,94.56
2016-11-29T00:06:30.942Z,93.99
2016-11-29T00:07:31.143Z,93.7
2016-11-29T00:08:30.931Z,93.99
2016-11-29T00:09:31.014Z,93.8
2016-11-29T00:10:30.914Z,94.18
2016-11-29T00:11:31.022Z,93.7
2016-11-29T00:12:30.930Z,94.27
2016-11-29T00:13:31.075Z,94.27
2016-11-29T00:14:31.060Z,93.89
2016-11-29T00:15:31.127Z,93.89
2016-11-29T00:16:31.100Z,93.7
2016-11-29T00:17:31.096Z,94.08
2016-11-29T00:18:31.054Z,93.89
2016-11-29T00:19:31.122Z,93.89
2016-11-29T00:20:31.233Z,93.89
2016-11-29T00:21:31.129Z,93.99
2016-11-29T00:22:31.213Z,93.99
2016-11-29T00:23:31.158Z,93.7
2016-11-29T00:24:31.075Z,94.08
2016-11-29T00:25:31.049Z,94.18
2016-11-29T00:26:31.004Z,94.18
2016-11-29T00:27:30.983Z,94.27
2016-11-29T00:28:30.960Z,94.08
2016-11-29T00:29:31.086Z,94.37
2016-11-29T00:30:31.099Z,94.56
2016-11-29T00:31:31.551Z,94.56
2016-11-29T00:32:31.027Z,94.46
2016-11-29T00:33:31.193Z,94.46
2016-11-29T00:34:31.046Z,94.46
2016-11-29T00:35:31.149Z,94.65
2016-11-29T00:36:31.105Z,94.46
2016-11-29T00:37:31.765Z,94.27
2016-11-29T00:38:31.183Z,94.27
2016-11-29T00:39:31.319Z,94.27
2016-11-29T00:40:31.140Z,94.65
2016-11-29T00:41:31.136Z,94.56
2016-11-29T00:42:31.075Z,94.08
2016-11-29T00:43:31.346Z,94.6
2016-11-29T00:44:31.073Z,94.46
2016-11-29T00:45:31.435Z,94.18
2016-11-29T00:46:31.028Z,95.12
2016-11-29T00:47:31.308Z,94.46
2016-11-29T00:48:31.172Z,94.41
2016-11-29T00:49:31.166Z,94.27
2016-11-29T00:50:31.025Z,94.93
2016-11-29T00:51:31.126Z,94.74
2016-11-29T00:52:30.983Z,94.84
2016-11-29T00:53:30.988Z,95.03
2016-11-29T00:54:31.072Z,95.03
2016-11-29T00:55:31.381Z,94.65
2016-11-29T00:56:31.047Z,95.12
2016-11-29T00:57:31.082Z,94.93
2016-11-29T00:58:31.207Z,95.12
2016-11-29T00:59:31.444Z,95.21
2016-11-29T01:00:31.173Z,95.36
2016-11-29T01:01:31.556Z,95.59
2016-11-29T01:02:31.196Z,95.31
2016-11-29T01:03:41.355Z,95.03
2016-11-29T01:04:31.220Z,95.17
2016-11-29T01:05:31.172Z,95.03
2016-11-29T01:06:31.535Z,95.12
2016-11-29T01:07:31.204Z,95.31
2016-11-29T01:08:31.443Z,95.03
2016-11-29T01:09:31.404Z,95.17
2016-11-29T01:10:31.671Z,94.84
2016-11-29T01:11:31.684Z,95.03
2016-11-29T01:12:31.559Z,94.98
2016-11-29T01:13:31.474Z,95.31
2016-11-29T01:14:31.756Z,95.26
2016-11-29T01:15:32.582Z,95.17
2016-11-29T01:16:31.960Z,95.4
2016-11-29T01:17:31.464Z,95.26
2016-11-29T01:18:31.844Z,95.64
2016-11-29T01:19:32.368Z,95.4
2016-11-29T01:20:31.900Z,95.36
2016-11-29T01:21:32.053Z,95.64
2016-11-29T01:22:31.894Z,95.78
2016-11-29T01:23:31.801Z,95.59
2016-11-29T01:24:31.924Z,95.73
2016-11-29T01:25:31.485Z,95.92
2016-11-29T01:26:31.564Z,95.31
2016-11-29T01:27:31.948Z,95.59
2016-11-29T01:28:31.716Z,95.45
2016-11-29T01:29:31.482Z,95.26
2016-11-29T01:30:31.518Z,95.17
2016-11-29T01:31:31.563Z,95.54
2016-11-29T01:32:31.830Z,95.07
2016-11-29T01:33:32.071Z,94.79
2016-11-29T01:34:31.808Z,95.17
2016-11-29T01:35:31.444Z,95.64
2016-11-29T01:36:31.717Z,95.26
2016-11-29T01:37:31.652Z,95.92
2016-11-29T01:38:31.816Z,95.17
2016-11-29T01:39:32.660Z,95.54
2016-11-29T01:40:31.577Z,95.54
2016-11-29T01:41:31.807Z,95.26
2016-11-29T01:42:31.500Z,95.26
2016-11-29T01:43:31.501Z,95.26
2016-11-29T01:44:31.944Z,95.45
2016-11-29T01:45:32.027Z,95.36
2016-11-29T01:46:32.383Z,95.36
2016-11-29T01:47:31.301Z,95.17
2016-11-29T01:48:32.580Z,95.17
2016-11-29T01:49:32.320Z,95.26
2016-11-29T01:50:31.338Z,95.83
2016-11-29T01:51:31.885Z,95.45
2016-11-29T01:52:31.409Z,95.73
2016-11-29T01:53:31.612Z,95.45
2016-11-29T01:54:31.648Z,95.26
2016-11-29T01:55:31.870Z,95.26
2016-11-29T01:56:31.310Z,95.26
2016-11-29T01:57:32.035Z,95.45
2016-11-29T01:58:31.614Z,95.54
2016-11-29T01:59:31.583Z,95.73
2016-11-29T02:00:32.225Z,95.26
2016-11-29T02:01:31.423Z,95.26
2016-11-29T02:02:31.326Z,95.26
2016-11-29T02:03:31.813Z,95.17
2016-11-29T02:04:31.707Z,95.54
2016-11-29T02:05:31.543Z,95.36
2016-11-29T02:06:31.623Z,95.54
2016-11-29T02:07:31.469Z,95.26
2016-11-29T02:08:31.942Z,95.26
2016-11-29T02:09:31.344Z,95.26
2016-11-29T02:10:33.353Z,95.26
2016-11-29T02:11:31.946Z,95.36
2016-11-29T02:12:32.873Z,95.45
2016-11-29T02:13:31.805Z,95.45
2016-11-29T02:14:32.990Z,95.36
2016-11-29T02:15:31.592Z,95.36
2016-11-29T02:16:32.263Z,95.17
2016-11-29T02:17:32.360Z,95.17
2016-11-29T02:18:32.432Z,95.54
2016-11-29T02:19:31.705Z,95.26
2016-11-29T02:20:31.967Z,95.26
2016-11-29T02:21:32.235Z,95.17
2016-11-29T02:22:43.424Z,95.64
2016-11-29T02:23:32.007Z,95.36
2016-11-29T02:24:31.940Z,94.98
2016-11-29T02:25:31.658Z,94.89
2016-11-29T02:26:31.294Z,94.98
2016-11-29T02:27:31.649Z,94.98
2016-11-29T02:28:31.493Z,95.54
2016-11-29T02:29:31.502Z,95.26
2016-11-29T02:30:31.654Z,95.07
2016-11-29T02:31:31.516Z,94.7
2016-11-29T02:32:31.586Z,95.36
2016-11-29T02:33:31.954Z,95.54
2016-11-29T02:34:31.843Z,95.64
2016-11-29T02:35:31.916Z,94.79
2016-11-29T02:36:32.375Z,95.07
2016-11-29T02:37:31.827Z,94.98
2016-11-29T02:38:31.504Z,95.54
2016-11-29T02:39:31.991Z,95.17
2016-11-29T02:40:32.806Z,94.98
2016-11-29T02:41:31.714Z,94.79
2016-11-29T02:42:31.359Z,95.17
2016-11-29T02:43:31.998Z,94.89
2016-11-29T02:44:31.837Z,94.79
2016-11-29T02:45:31.758Z,94.79
2016-11-29T02:46:31.865Z,94.79
2016-11-29T02:47:32.828Z,94.98
2016-11-29T02:48:31.918Z,95.17
2016-11-29T02:49:31.715Z,94.89
2016-11-29T02:50:31.767Z,94.32
2016-11-29T02:51:32.319Z,95.07
2016-11-29T02:52:32.621Z,94.41
2016-11-29T02:53:32.092Z,94.32
2016-11-29T02:54:31.504Z,94.22
2016-11-29T02:55:31.292Z,94.41
2016-11-29T02:56:31.486Z,94.41
2016-11-29T02:57:31.737Z,94.22
2016-11-29T02:58:32.170Z,94.22
2016-11-29T02:59:32.816Z,94.79
2016-11-29T03:00:31.864Z,94.79
2016-11-29T03:01:31.751Z,94.98
2016-11-29T03:02:31.744Z,94.89
2016-11-29T03:03:32.735Z,94.98
2016-11-29T03:04:31.713Z,94.79
2016-11-29T03:05:31.752Z,94.98
2016-11-29T03:06:31.503Z,95.07
2016-11-29T03:07:31.478Z,94.98
2016-11-29T03:08:31.839Z,94.89
2016-11-29T03:09:31.825Z,95.45
2016-11-29T03:10:31.908Z,95.45
2016-11-29T03:11:31.839Z,95.73
2016-11-29T03:12:32.211Z,95.45
2016-11-29T03:13:32.307Z,95.54
2016-11-29T03:14:32.411Z,95.73
2016-11-29T03:15:33.306Z,95.54
2016-11-29T03:16:31.930Z,95.17
2016-11-29T03:17:33.581Z,95.07
2016-11-29T03:18:31.942Z,95.73
2016-11-29T03:19:31.729Z,95.92
2016-11-29T03:20:31.747Z,95.17
2016-11-29T03:21:31.438Z,95.45
2016-11-29T03:22:31.442Z,95.45
2016-11-29T03:23:31.970Z,95.36
2016-11-29T03:24:31.648Z,95.73
2016-11-29T03:25:31.722Z,95.45
2016-11-29T03:26:31.944Z,95.64
2016-11-29T03:27:31.664Z,95.45
2016-11-29T03:28:31.623Z,95.26
2016-11-29T03:29:31.630Z,95.45
2016-11-29T03:30:31.780Z,95.17
2016-11-29T03:31:31.318Z,94.98
2016-11-29T03:32:31.676Z,95.07
2016-11-29T03:33:31.583Z,95.64
2016-11-29T03:34:32.015Z,96.11
2016-11-29T03:35:31.695Z,96.2
2016-11-29T03:36:32.054Z,96.11
2016-11-29T03:37:31.875Z,95.83
2016-11-29T03:38:31.787Z,95.45
2016-11-29T03:39:32.262Z,95.45
2016-11-29T03:40:32.406Z,96.11
2016-11-29T03:41:32.063Z,95.92
2016-11-29T03:42:31.611Z,96.3
2016-11-29T03:43:32.130Z,95.83
2016-11-29T03:44:32.389Z,95.83
2016-11-29T03:45:32.352Z,96.86
2016-11-29T03:46:32.660Z,96.3
2016-11-29T03:47:33.259Z,96.77
2016-11-29T03:48:31.657Z,96.49
2016-11-29T03:49:32.131Z,95.83
2016-11-29T03:50:32.121Z,95.83
2016-11-29T03:51:31.474Z,96.01
2016-11-29T03:52:32.178Z,96.11
2016-11-29T03:53:31.881Z,95.45
2016-11-29T03:54:31.832Z,95.07
2016-11-29T03:55:32.013Z,95.64
2016-11-29T03:56:31.974Z,96.01
2016-11-29T03:57:32.361Z,96.3
2016-11-29T03:58:31.733Z,96.3
2016-11-29T03:59:31.824Z,96.39
2016-11-29T04:00:32.901Z,96.49
2016-11-29T04:01:31.988Z,96.11
2016-11-29T04:02:32.154Z,96.49
2016-11-29T04:03:31.582Z,96.3
2016-11-29T04:04:32.189Z,96.77
2016-11-29T04:05:32.041Z,96.77
2016-11-29T04:06:31.998Z,96.77
2016-11-29T04:07:31.906Z,96.58
2016-11-29T04:08:31.664Z,96.68
2016-11-29T04:09:31.897Z,96.39
2016-11-29T04:10:31.784Z,96.3
2016-11-29T04:11:32.008Z,96.58
2016-11-29T04:12:31.681Z,96.3
2016-11-29T04:13:32.433Z,96.77
2016-11-29T04:14:31.561Z,96.68
2016-11-29T04:15:31.976Z,96.58
2016-11-29T04:16:32.045Z,96.49
2016-11-29T04:17:32.023Z,96.3
2016-11-29T04:18:31.596Z,95.92
2016-11-29T04:19:31.989Z,95.92
2016-11-29T04:20:31.565Z,95.92
2016-11-29T04:21:31.559Z,96.01
2016-11-29T04:22:31.403Z,95.83
2016-11-29T04:23:31.638Z,95.73
2016-11-29T04:24:31.729Z,95.83
2016-11-29T04:25:31.938Z,96.3
2016-11-29T04:26:32.205Z,96.01
2016-11-29T04:27:31.901Z,95.73
2016-11-29T04:28:31.369Z,95.73
2016-11-29T04:29:31.864Z,95.07
2016-11-29T04:30:31.673Z,95.26
2016-11-29T04:31:32.133Z,95.92
2016-11-29T04:32:32.065Z,95.45
2016-11-29T04:33:31.568Z,95.36
2016-11-29T04:34:31.538Z,95.26
2016-11-29T04:35:31.940Z,95.45
2016-11-29T04:36:32.033Z,95.17
2016-11-29T04:37:32.079Z,95.73
2016-11-29T04:38:32.009Z,95.45
2016-11-29T04:39:31.692Z,95.73
2016-11-29T04:40:32.278Z,95.45
2016-11-29T04:41:31.837Z,95.36
2016-11-29T04:42:31.869Z,95.45
2016-11-29T04:43:31.347Z,95.36
2016-11-29T04:44:31.456Z,95.26
2016-11-29T04:45:31.389Z,95.26
2016-11-29T04:46:31.226Z,95.36
2016-11-29T04:47:31.295Z,95.26
2016-11-29T04:48:31.213Z,96.01
2016-11-29T04:53:00.237Z,95.64
2016-11-29T04:54:00.459Z,95.73
2016-11-29T04:55:00.246Z,95.26
2016-11-29T04:56:00.531Z,95.17
2016-11-29T04:57:00.105Z,95.17
2016-11-29T04:58:00.234Z,95.36
2016-11-29T04:59:00.348Z,95.45
2016-11-29T05:00:00.433Z,95.45
2016-11-29T05:01:00.443Z,96.01
2016-11-29T05:02:00.514Z,95.83
2016-11-29T05:03:00.569Z,95.73
2016-11-29T05:04:00.367Z,95.73
2016-11-29T05:05:00.415Z,95.64
2016-11-29T05:06:00.327Z,96.01
2016-11-29T05:07:00.224Z,95.26
2016-11-29T05:08:00.571Z,95.83
2016-11-29T05:09:00.670Z,95.26
2016-11-29T05:10:00.255Z,95.17
2016-11-29T05:11:00.322Z,95.17
2016-11-29T05:12:00.485Z,94.7
2016-11-29T05:13:00.432Z,95.07
2016-11-29T05:14:00.321Z,94.65
2016-11-29T05:15:00.609Z,94.89
2016-11-29T05:16:00.788Z,94.74
2016-11-29T05:17:00.619Z,94.74
2016-11-29T05:18:00.625Z,94.84
2016-11-29T05:19:00.563Z,94.93
2016-11-29T05:20:00.261Z,94.51
2016-11-29T05:21:00.521Z,94.84
2016-11-29T05:22:00.840Z,94.93
2016-11-29T05:23:00.498Z,94.18
2016-11-29T05:24:00.959Z,94.65
2016-11-29T05:25:00.656Z,94.55
2016-11-29T05:26:00.355Z,94.03
2016-11-29T05:27:00.445Z,94.22
2016-11-29T05:28:00.998Z,94.08
2016-11-29T05:29:00.555Z,93.8
2016-11-29T05:30:00.671Z,93.8
2016-11-29T05:31:00.766Z,94.18
2016-11-29T05:32:00.949Z,94.08
2016-11-29T05:33:01.444Z,94.36
2016-11-29T05:34:01.215Z,95.03
2016-11-29T05:35:00.867Z,94.84
2016-11-29T05:36:00.527Z,95.21
2016-11-29T05:37:01.094Z,95.31
2016-11-29T05:38:00.814Z,95.26
2016-11-29T05:39:01.428Z,95.64
2016-11-29T05:40:02.016Z,95.59
2016-11-29T05:41:01.115Z,95.07
2016-11-29T05:42:01.570Z,94.89
2016-11-29T05:43:01.794Z,94.6
2016-11-29T05:44:01.177Z,94.46
2016-11-29T05:45:00.866Z,94.93
2016-11-29T05:46:00.914Z,94.98
2016-11-29T05:47:00.958Z,94.84
2016-11-29T05:48:00.538Z,94.93
2016-11-29T05:49:01.067Z,94.93
2016-11-29T05:50:00.524Z,94.65
2016-11-29T05:51:01.427Z,94.74
2016-11-29T05:52:01.852Z,95.07
2016-11-29T05:53:01.296Z,94.84
2016-11-29T05:54:01.503Z,94.74
2016-11-29T05:55:00.774Z,95.03
2016-11-29T05:56:01.184Z,94.84
2016-11-29T05:57:00.905Z,94.27
2016-11-29T05:58:01.185Z,94.89
2016-11-29T05:59:00.659Z,94.65
2016-11-29T06:00:01.415Z,94.74
2016-11-29T06:01:01.396Z,95.03
2016-11-29T06:02:00.889Z,94.93
2016-11-29T06:03:01.442Z,94.55
2016-11-29T06:04:02.165Z,94.74
2016-11-29T06:05:01.692Z,94.74
2016-11-29T06:06:01.610Z,94.65
2016-11-29T06:07:00.981Z,94.65
2016-11-29T06:08:00.858Z,94.74
2016-11-29T06:09:01.111Z,94.74
2016-11-29T06:10:01.248Z,95.4
2016-11-29T06:11:00.664Z,95.59
2016-11-29T06:12:01.560Z,95.31
2016-11-29T06:13:00.650Z,95.4
2016-11-29T06:14:01.101Z,95.59
2016-11-29T06:15:01.357Z,95.78
2016-11-29T06:16:01.704Z,95.68
2016-11-29T06:17:01.433Z,95.4
2016-11-29T06:18:00.852Z,96.06
2016-11-29T06:19:00.991Z,96.06
2016-11-29T06:20:00.735Z,96.06
2016-11-29T06:21:01.358Z,96.06
2016-11-29T06:22:00.910Z,95.4
2016-11-29T06:23:00.808Z,95.68
2016-11-29T06:24:00.959Z,96.06
2016-11-29T06:25:01.053Z,96.06
2016-11-29T06:26:00.837Z,95.4
2016-11-29T06:27:00.571Z,95.31
2016-11-29T06:28:00.749Z,95.4
2016-11-29T06:29:00.687Z,95.31
2016-11-29T06:30:01.147Z,95.4
2016-11-29T06:31:00.844Z,95.03
2016-11-29T06:32:00.786Z,95.78
2016-11-29T06:33:01.794Z,95.87
2016-11-29T06:34:00.881Z,95.4
2016-11-29T06:35:00.762Z,95.21
2016-11-29T06:36:01.064Z,95.4
2016-11-29T06:37:01.010Z,94.74
2016-11-29T06:38:00.626Z,94.65
2016-11-29T06:39:01.728Z,94.65
2016-11-29T06:40:00.782Z,94.84
2016-11-29T06:41:01.397Z,94.74
2016-11-29T06:42:01.872Z,95.03
2016-11-29T06:43:00.872Z,94.08
2016-11-29T06:44:00.448Z,95.03
2016-11-29T06:45:01.042Z,94.93
2016-11-29T06:46:00.426Z,94.74
2016-11-29T06:47:00.590Z,94.84
2016-11-29T06:48:00.307Z,94.74
2016-11-29T06:49:00.455Z,95.21
2016-11-29T06:50:00.750Z,95.97
2016-11-29T06:51:00.605Z,95.78
2016-11-29T06:52:00.514Z,96.63
2016-11-29T06:53:00.769Z,96.44
2016-11-29T06:54:01.204Z,96.44
2016-11-29T06:55:01.211Z,96.53
2016-11-29T06:56:00.429Z,96.15
2016-11-29T06:57:00.706Z,95.78
2016-11-29T06:58:00.648Z,96.06
2016-11-29T06:59:00.602Z,96.15
2016-11-29T07:00:00.819Z,95.87
2016-11-29T07:01:02.763Z,96.06
2016-11-29T07:02:00.740Z,96.34
2016-11-29T07:03:00.707Z,96.25
2016-11-29T07:04:05.283Z,96.15
2016-11-29T07:08:35.192Z,95.5
2016-11-29T07:09:35.065Z,95.97
2016-11-29T07:10:35.281Z,95.5
2016-11-29T07:11:35.187Z,95.97
2016-11-29T07:12:35.097Z,95.4
2016-11-29T07:13:35.355Z,95.31
2016-11-29T07:14:34.938Z,95.78
2016-11-29T07:15:34.827Z,95.78
2016-11-29T07:16:34.873Z,95.97
2016-11-29T07:17:34.947Z,95.78
2016-11-29T07:18:34.950Z,95.4
2016-11-29T07:19:34.990Z,95.03
2016-11-29T07:20:34.905Z,95.31
2016-11-29T07:21:35.024Z,95.5
2016-11-29T07:22:35.529Z,95.78
2016-11-29T07:23:35.247Z,95.87
2016-11-29T07:24:35.187Z,95.31
2016-11-29T07:25:35.686Z,95.31
2016-11-29T07:26:35.211Z,95.68
2016-11-29T07:27:35.037Z,95.87
2016-11-29T07:28:35.453Z,95.21
2016-11-29T07:29:35.017Z,95.31
2016-11-29T07:30:35.042Z,95.5
2016-11-29T07:31:35.098Z,95.12
2016-11-29T07:32:35.036Z,94.84
2016-11-29T07:33:35.402Z,94.65
2016-11-29T07:34:35.346Z,94.93
2016-11-29T07:35:35.428Z,94.93
2016-11-29T07:36:34.833Z,95.03
2016-11-29T07:37:35.190Z,94.84
2016-11-29T07:38:35.372Z,94.93
2016-11-29T07:39:35.396Z,95.21
2016-11-29T07:40:35.481Z,94.98
2016-11-29T07:41:35.098Z,95.12
2016-11-29T07:42:35.434Z,95.03
2016-11-29T07:43:35.278Z,95.17
2016-11-29T07:44:35.172Z,94.84
2016-11-29T07:45:34.948Z,95.21
2016-11-29T07:46:35.189Z,95.31
2016-11-29T07:47:35.157Z,95.12
2016-11-29T07:48:34.985Z,95.36
2016-11-29T07:49:35.403Z,95.26
2016-11-29T07:50:35.095Z,95.36
2016-11-29T07:51:35.971Z,95.36
2016-11-29T07:52:35.131Z,95.26
2016-11-29T07:53:34.925Z,95.17
2016-11-29T07:54:35.066Z,95.07
2016-11-29T07:55:35.116Z,95.17
2016-11-29T07:56:35.167Z,94.98
2016-11-29T07:57:35.288Z,94.89
2016-11-29T07:58:34.855Z,94.7
2016-11-29T07:59:35.108Z,94.89
2016-11-29T08:00:35.148Z,94.51
2016-11-29T08:01:34.822Z,94.98
2016-11-29T08:02:34.907Z,94.51
2016-11-29T08:03:35.154Z,95.07
2016-11-29T08:04:35.160Z,94.89
2016-11-29T08:05:35.164Z,95.17
2016-11-29T08:06:35.275Z,95.17
2016-11-29T08:07:35.163Z,95.17
2016-11-29T08:08:35.170Z,94.89
2016-11-29T08:09:35.080Z,95.36
2016-11-29T08:10:35.149Z,95.36
2016-11-29T08:11:35.059Z,95.36
2016-11-29T08:12:35.149Z,95.36
2016-11-29T08:13:35.122Z,95.07
2016-11-29T08:14:35.097Z,95.45
2016-11-29T08:15:35.071Z,95.73
2016-11-29T08:16:35.107Z,95.83
2016-11-29T08:17:35.269Z,95.92
2016-11-29T08:18:35.283Z,96.11
2016-11-29T08:19:35.405Z,95.73
2016-11-29T08:20:34.928Z,95.45
2016-11-29T08:21:35.115Z,95.73
2016-11-29T08:22:35.842Z,96.01
2016-11-29T08:23:35.120Z,96.01
2016-11-29T08:24:35.508Z,95.83
2016-11-29T08:25:34.998Z,95.83
2016-11-29T08:26:35.124Z,96.35
2016-11-29T08:27:34.848Z,96.11
2016-11-29T08:28:35.098Z,95.21
2016-11-29T08:29:35.399Z,95.21
2016-11-29T08:30:35.074Z,95.12
2016-11-29T08:31:35.217Z,95.03
2016-11-29T08:32:35.157Z,95.03
2016-11-29T08:33:35.371Z,95.03
2016-11-29T08:34:35.064Z,94.84
2016-11-29T08:35:34.909Z,95.03
2016-11-29T08:36:35.266Z,94.84
2016-11-29T08:37:35.657Z,95.03
2016-11-29T08:38:35.329Z,94.65
2016-11-29T08:39:34.989Z,94.27
2016-11-29T08:40:36.130Z,93.89
2016-11-29T08:41:35.560Z,93.7
2016-11-29T08:42:36.006Z,93.8
2016-11-29T08:43:35.781Z,93.99
2016-11-29T08:44:36.126Z,93.61
2016-11-29T08:45:35.940Z,93.23
2016-11-29T08:46:35.855Z,92.99
2016-11-29T08:47:35.985Z,93.09
2016-11-29T08:48:36.194Z,93.47
2016-11-29T08:49:36.132Z,93.56
2016-11-29T08:50:36.104Z,93.28
2016-11-29T08:51:36.764Z,93.18
2016-11-29T08:52:36.331Z,93.09
2016-11-29T08:53:36.337Z,92.61
2016-11-29T08:54:35.987Z,91.67
2016-11-29T08:55:36.508Z,90.54
2016-11-29T08:56:36.955Z,90.54
2016-11-29T08:57:36.521Z,90.16
2016-11-29T08:58:36.861Z,90.06
2016-11-29T08:59:35.819Z,90.11
2016-11-29T09:00:36.079Z,90.2
2016-11-29T09:01:36.304Z,90.49
2016-11-29T09:02:37.042Z,89.92
2016-11-29T09:03:37.557Z,89.17
2016-11-29T09:04:37.823Z,88.41
2016-11-29T09:05:41.033Z,88.6
2016-11-29T09:06:36.245Z,88.88
2016-11-29T09:07:37.616Z,88.12
2016-11-29T09:08:36.061Z,87.65
2016-11-29T09:09:36.189Z,88.03
2016-11-29T09:10:36.398Z,88.22
2016-11-29T09:11:35.825Z,87.93
2016-11-29T09:12:37.480Z,88.22
2016-11-29T09:13:36.372Z,88.69
2016-11-29T09:14:36.613Z,87.93
2016-11-29T09:15:38.086Z,87.84
2016-11-29T09:16:37.138Z,88.22
2016-11-29T09:17:35.848Z,87.93
2016-11-29T09:18:36.377Z,86.75
2016-11-29T09:19:36.282Z,85.52
2016-11-29T09:20:36.899Z,84.95
2016-11-29T09:21:36.323Z,84.29
2016-11-29T09:22:36.270Z,84.01
2016-11-29T09:23:36.591Z,84.29
2016-11-29T09:24:36.446Z,84.1
2016-11-29T09:25:36.837Z,83.91
2016-11-29T09:26:36.497Z,84.29
2016-11-29T09:27:36.980Z,84.05
2016-11-29T09:28:36.235Z,83.1
2016-11-29T09:29:36.554Z,82.63
2016-11-29T09:30:37.170Z,82.15
2016-11-29T09:31:36.481Z,81.77
2016-11-29T09:32:36.131Z,81.59
2016-11-29T09:33:37.697Z,80.77
2016-11-29T09:34:37.428Z,78.88
2016-11-29T09:35:41.739Z,77.12
2016-11-29T09:36:37.331Z,75.51
2016-11-29T09:37:37.779Z,74.51
2016-11-29T09:38:36.399Z,72.8
2016-11-29T09:39:36.159Z,72.89
2016-11-29T09:40:37.451Z,71.03
2016-11-29T09:41:37.159Z,69.99
2016-11-29T09:42:36.596Z,69.33
2016-11-29T09:43:36.696Z,68.85
2016-11-29T09:44:36.877Z,68.19
2016-11-29T09:45:36.364Z,67.08
2016-11-29T09:46:36.929Z,66.42
2016-11-29T09:47:37.181Z,65.85
2016-11-29T09:48:37.154Z,64.33
2016-11-29T09:49:36.645Z,64.05
2016-11-29T09:50:36.685Z,63.39
2016-11-29T09:51:36.507Z,63.04
2016-11-29T09:52:36.161Z,61.52
2016-11-29T09:53:36.378Z,61.42
2016-11-29T09:54:36.739Z,60.85
2016-11-29T09:55:36.035Z,59.24
2016-11-29T09:56:36.091Z,58.41
2016-11-29T09:57:35.951Z,58.32
2016-11-29T09:58:36.164Z,57.75
2016-11-29T09:59:36.009Z,57.65
2016-11-29T10:00:36.255Z,57.09
2016-11-29T10:01:36.093Z,56.23
2016-11-29T10:02:36.179Z,57.34
2016-11-29T10:03:36.540Z,57.24
2016-11-29T10:04:36.998Z,58.54
2016-11-29T10:05:36.205Z,60.79
2016-11-29T10:06:36.097Z,61.55
2016-11-29T10:07:36.205Z,61.65
2016-11-29T10:08:36.120Z,62.78
2016-11-29T10:09:36.346Z,63.17
2016-11-29T10:10:36.492Z,63.17
2016-11-29T10:11:40.151Z,61.83
2016-11-29T10:12:37.226Z,61.55
2016-11-29T10:13:36.857Z,60.7
2016-11-29T10:14:40.309Z,60.98
2016-11-29T10:15:38.826Z,61.55
2016-11-29T10:16:38.982Z,62.28
2016-11-29T10:17:38.959Z,63.42
2016-11-29T10:18:40.712Z,63.23
2016-11-29T10:19:38.285Z,64.36
2016-11-29T10:20:36.398Z,64.17
2016-11-29T10:21:36.718Z,65.09
2016-11-29T10:22:37.268Z,65
2016-11-29T10:23:36.727Z,65.75
2016-11-29T10:24:37.307Z,66.03
2016-11-29T10:25:36.679Z,65.75
2016-11-29T10:26:36.469Z,66.6
2016-11-29T10:27:37.621Z,66.8
2016-11-29T10:28:37.509Z,67.36
2016-11-29T10:29:36.580Z,66.7
2016-11-29T10:30:37.037Z,66.7
2016-11-29T10:31:36.331Z,67.65
2016-11-29T10:32:36.366Z,67.74
2016-11-29T10:33:36.711Z,68.21
2016-11-29T10:34:37.005Z,69.07
2016-11-29T10:35:37.776Z,69.07
2016-11-29T10:36:36.168Z,67.46
2016-11-29T10:37:36.364Z,67.52
2016-11-29T10:38:36.234Z,66.6
2016-11-29T10:39:36.440Z,67.36
2016-11-29T10:40:36.205Z,66.09
2016-11-29T10:41:36.329Z,66.76
2016-11-29T10:42:36.564Z,67.43
2016-11-29T10:43:37.495Z,67.8
2016-11-29T10:44:37.526Z,67.24
2016-11-29T10:45:36.598Z,67.43
2016-11-29T10:46:36.691Z,68.08
2016-11-29T10:47:37.313Z,66.76
2016-11-29T10:48:36.861Z,67.9
2016-11-29T10:49:36.283Z,67.9
2016-11-29T10:50:37.081Z,68.27
2016-11-29T10:51:36.760Z,68.27
2016-11-29T10:52:37.011Z,68.46
2016-11-29T10:53:36.708Z,68.08
2016-11-29T10:54:36.447Z,68.27
2016-11-29T10:55:36.472Z,69.22
2016-11-29T10:56:36.702Z,68.46
2016-11-29T10:57:36.138Z,68.08
2016-11-29T10:58:36.739Z,66.76
2016-11-29T10:59:36.637Z,65.91
2016-11-29T11:00:36.866Z,65.91
2016-11-29T11:01:36.814Z,66.8
2016-11-29T11:02:36.440Z,66.7
2016-11-29T11:03:36.742Z,66.03
2016-11-29T11:04:36.410Z,66.89
2016-11-29T11:05:36.167Z,65.84
2016-11-29T11:06:38.071Z,64.23
2016-11-29T11:07:36.369Z,63.6
2016-11-29T11:08:36.284Z,63.13
2016-11-29T11:09:37.694Z,61.65
2016-11-29T11:10:37.312Z,60.79
2016-11-29T11:11:39.331Z,59.46
2016-11-29T11:12:36.411Z,59.08
2016-11-29T11:13:37.561Z,58.54
2016-11-29T11:14:36.897Z,57.21
2016-11-29T11:15:37.875Z,57.88
2016-11-29T11:16:37.146Z,56.17
2016-11-29T11:17:36.678Z,54.94
2016-11-29T11:18:37.463Z,54.02
2016-11-29T11:19:36.429Z,54.78
2016-11-29T11:20:37.387Z,54.97
2016-11-29T11:21:37.448Z,54.97
2016-11-29T11:22:36.643Z,54.58
2016-11-29T11:23:36.465Z,53.73
2016-11-29T11:24:36.162Z,54.3
2016-11-29T11:25:36.441Z,54.49
2016-11-29T11:26:36.294Z,53.07
2016-11-29T11:27:37.071Z,51.64
2016-11-29T11:28:37.536Z,52.97
2016-11-29T11:29:36.502Z,52.87
2016-11-29T11:30:36.204Z,53.07
2016-11-29T11:31:36.100Z,50.89
2016-11-29T11:32:36.136Z,50.41
2016-11-29T11:33:36.481Z,50.41
2016-11-29T11:34:36.697Z,50.6
2016-11-29T11:35:36.168Z,49.27
2016-11-29T11:36:36.408Z,48.99
2016-11-29T11:37:36.169Z,49.18
2016-11-29T11:38:35.772Z,49.84
2016-11-29T11:39:36.374Z,48.89
2016-11-29T11:40:36.082Z,48.8
2016-11-29T11:41:38.379Z,48.61
2016-11-29T11:42:35.989Z,47.66
2016-11-29T11:43:36.986Z,48.13
2016-11-29T11:44:36.102Z,48.13
2016-11-29T11:45:37.248Z,48.22
2016-11-29T11:46:36.346Z,48.22
2016-11-29T11:47:36.519Z,48.51
2016-11-29T11:48:36.580Z,49.84
2016-11-29T11:49:37.459Z,48.03
2016-11-29T11:50:36.221Z,47.66
2016-11-29T11:51:36.391Z,48.63
2016-11-29T11:52:36.552Z,47.77
2016-11-29T11:53:36.145Z,47.11
2016-11-29T11:54:36.386Z,46.35
2016-11-29T11:55:37.033Z,46.45
2016-11-29T11:56:36.305Z,46.16
2016-11-29T11:57:37.811Z,45.78
2016-11-29T11:58:36.912Z,46.16
2016-11-29T11:59:37.966Z,46.19
2016-11-29T12:00:36.910Z,46.66
2016-11-29T12:01:36.076Z,44.19
2016-11-29T12:02:35.922Z,44.26
2016-11-29T12:03:36.694Z,44.38
2016-11-29T12:04:35.709Z,45.8
2016-11-29T12:05:37.611Z,45.14
2016-11-29T12:06:36.438Z,44.28
2016-11-29T12:07:36.772Z,44.93
2016-11-29T12:08:38.211Z,44.93
2016-11-29T12:09:36.806Z,45.04
2016-11-29T12:10:36.218Z,45.42
2016-11-29T12:11:36.703Z,44.93
2016-11-29T12:12:36.965Z,45.59
2016-11-29T12:13:41.889Z,45.97
2016-11-29T12:14:36.280Z,46.45
2016-11-29T12:15:36.833Z,46.83
2016-11-29T12:16:36.843Z,45.97
2016-11-29T12:17:36.530Z,47.39
2016-11-29T12:18:36.667Z,48.44
2016-11-29T12:19:36.902Z,47.77
2016-11-29T12:20:38.973Z,47.58
2016-11-29T12:21:36.177Z,48.54
2016-11-29T12:22:36.950Z,47.49
2016-11-29T12:23:39.391Z,47.02
2016-11-29T12:24:36.838Z,47.11
2016-11-29T12:25:36.324Z,46.16
2016-11-29T12:26:36.519Z,45.68
2016-11-29T12:27:36.233Z,46.45
2016-11-29T12:28:36.643Z,46.64
2016-11-29T12:29:36.359Z,46.54
2016-11-29T12:30:36.524Z,46.25
2016-11-29T12:31:36.639Z,47.02
2016-11-29T12:32:36.489Z,46.45
2016-11-29T12:33:36.182Z,46.64
2016-11-29T12:34:36.607Z,46.35
2016-11-29T12:35:36.920Z,45.97
2016-11-29T12:36:36.922Z,45.5
2016-11-29T12:37:36.528Z,44.95
2016-11-29T12:38:36.669Z,45.61
2016-11-29T12:39:36.537Z,45.04
2016-11-29T12:40:37.237Z,44.85
2016-11-29T12:41:38.103Z,44.28
2016-11-29T12:42:36.599Z,44.85
2016-11-29T12:43:37.691Z,45.33
2016-11-29T12:44:36.796Z,45.23
2016-11-29T12:45:36.979Z,45.42
2016-11-29T12:46:36.928Z,44.67
2016-11-29T12:47:38.501Z,45.14
2016-11-29T12:48:36.969Z,46.19
2016-11-29T12:49:37.018Z,45.9
2016-11-29T12:50:37.111Z,45.14
2016-11-29T12:51:37.119Z,44.45
2016-11-29T12:52:38.122Z,44.57
2016-11-29T12:53:36.827Z,45.23
2016-11-29T12:54:37.527Z,45.33
2016-11-29T12:55:36.663Z,45.04
2016-11-29T12:56:36.790Z,45.52
2016-11-29T12:57:36.337Z,44.85
2016-11-29T12:58:37.436Z,44.95
2016-11-29T12:59:36.915Z,45.14
2016-11-29T13:00:37.874Z,44.09
2016-11-29T13:01:36.864Z,44.67